createdAt,value
2022-09-01T00:00:22.694Z,99.40
2022-09-01T00:05:25.638Z,99.40
2022-09-01T00:10:29.937Z,99.40
2022-09-01T00:15:32.590Z,99.40
2022-09-01T00:20:35.244Z,99.40
2022-09-01T00:25:37.739Z,99.40
2022-09-01T00:30:40.357Z,99.50
2022-09-01T00:35:45.451Z,99.50
2022-09-01T00:40:48.285Z,99.50
2022-09-01T00:45:51.978Z,99.50
2022-09-01T00:50:54.870Z,99.50
2022-09-01T00:55:57.627Z,99.60
2022-09-01T01:01:00.140Z,99.80
2022-09-01T01:06:08.337Z,99.60
2022-09-01T01:11:20.610Z,99.70
2022-09-01T01:16:25.157Z,99.70
2022-09-01T01:21:57.746Z,99.70
2022-09-01T01:27:02.089Z,99.60
2022-09-01T01:32:09.800Z,99.70
2022-09-01T01:37:14.378Z,99.80
2022-09-01T01:42:17.263Z,99.80
2022-09-01T01:47:20.391Z,99.80
2022-09-01T01:52:26.162Z,99.80
2022-09-01T01:57:31.972Z,99.80
2022-09-01T02:02:34.650Z,99.80
2022-09-01T02:07:37.909Z,99.80
2022-09-01T02:12:43.160Z,99.80
2022-09-01T02:17:47.163Z,99.70
2022-09-01T02:22:52.108Z,99.80
2022-09-01T02:27:55.564Z,99.90
2022-09-01T02:32:58.734Z,99.90
2022-09-01T02:38:01.869Z,99.90
2022-09-01T02:43:05.120Z,99.80
2022-09-01T02:48:09.858Z,99.90
2022-09-01T02:53:15.477Z,99.90
2022-09-01T02:58:20.184Z,99.90
2022-09-01T03:03:28.834Z,99.90
2022-09-01T03:08:34.418Z,99.90
2022-09-01T03:13:39.266Z,99.90
2022-09-01T03:18:43.007Z,99.90
2022-09-01T03:23:46.416Z,99.90
2022-09-01T03:28:51.056Z,99.90
2022-09-01T03:33:55.249Z,99.90
2022-09-01T03:39:01.712Z,99.90
2022-09-01T03:44:06.654Z,99.90
2022-09-01T03:49:15.403Z,99.90
2022-09-01T03:54:18.224Z,99.90
2022-09-01T03:59:22.731Z,99.90
2022-09-01T04:04:26.039Z,99.90
2022-09-01T04:09:28.630Z,99.90
2022-09-01T04:14:31.134Z,99.90
2022-09-01T04:19:36.967Z,99.90
2022-09-01T04:24:45.425Z,99.90
2022-09-01T04:29:48.594Z,99.90
2022-09-01T04:34:51.439Z,99.90
2022-09-01T04:39:57.114Z,99.90
2022-09-01T04:45:03.122Z,99.90
2022-09-01T04:50:17.571Z,99.90
2022-09-01T04:55:44.507Z,99.90
2022-09-01T05:00:53.478Z,99.90
2022-09-01T05:06:00.287Z,99.90
2022-09-01T05:11:08.006Z,99.90
2022-09-01T05:16:25.256Z,99.90
2022-09-01T05:21:30.828Z,99.90
2022-09-01T05:26:35.088Z,99.90
2022-09-01T05:31:39.016Z,99.80
2022-09-01T05:36:44.718Z,99.80
2022-09-01T05:41:49.400Z,99.80
2022-09-01T05:46:53.849Z,99.70
2022-09-01T05:51:59.101Z,99.70
2022-09-01T05:57:23.340Z,99.80
2022-09-01T06:02:28.951Z,99.70
2022-09-01T06:07:34.034Z,99.70
2022-09-01T06:12:37.826Z,99.80
2022-09-01T06:17:41.130Z,99.80
2022-09-01T06:22:45.426Z,99.80
2022-09-01T06:27:49.222Z,99.90
2022-09-01T06:32:55.388Z,96.80
2022-09-01T06:37:58.796Z,98.20
2022-09-01T06:43:12.612Z,97.70
2022-09-01T06:48:18.503Z,97.80
2022-09-01T06:53:37.295Z,98.90
2022-09-01T06:58:47.696Z,98.30
2022-09-01T07:03:53.169Z,98.20
2022-09-01T07:20:27.174Z,96.40
2022-09-01T07:25:48.419Z,97.50
2022-09-01T07:37:15.137Z,97.20
2022-09-01T07:42:31.191Z,98.10
2022-09-01T07:47:53.772Z,96.50
2022-09-01T08:04:42.342Z,93.10
2022-09-01T08:09:45.529Z,92.80
2022-09-01T08:15:12.674Z,93.10
2022-09-01T08:20:16.205Z,92.50
2022-09-01T08:25:31.205Z,92.00
2022-09-01T08:30:35.686Z,91.60
2022-09-01T08:35:44.124Z,91.20
2022-09-01T08:40:56.954Z,91.80
2022-09-01T08:46:19.878Z,91.60
2022-09-01T08:51:43.455Z,91.70
2022-09-01T08:56:47.420Z,90.90
2022-09-01T09:02:00.318Z,92.30
2022-09-01T09:07:20.233Z,91.30
2022-09-01T09:12:51.346Z,90.90
2022-09-01T09:18:04.698Z,91.30
2022-09-01T09:23:29.639Z,90.40
2022-09-01T09:28:32.163Z,91.10
2022-09-01T09:33:55.589Z,91.00
2022-09-01T09:39:19.854Z,91.40
2022-09-01T09:44:30.111Z,90.90
2022-09-01T09:49:35.244Z,90.90
2022-09-01T09:55:22.286Z,90.20
2022-09-01T10:00:34.720Z,90.50
2022-09-01T10:05:49.002Z,90.00
2022-09-01T10:10:57.955Z,89.10
2022-09-01T10:16:08.096Z,88.80
2022-09-01T10:21:26.630Z,89.70
2022-09-01T10:26:36.009Z,89.60
2022-09-01T10:31:41.623Z,63.60
2022-09-01T10:36:47.014Z,91.40
2022-09-01T10:42:00.347Z,89.70
2022-09-01T10:47:13.629Z,88.60
2022-09-01T10:52:41.859Z,91.00
2022-09-01T10:57:46.035Z,91.20
2022-09-01T11:08:50.946Z,91.40
2022-09-01T11:13:56.222Z,60.20
2022-09-01T11:19:21.684Z,94.90
2022-09-01T11:24:42.658Z,95.20
2022-09-01T11:30:00.915Z,95.00
2022-09-01T11:35:06.989Z,93.50
2022-09-01T11:40:10.570Z,92.00
2022-09-01T11:45:21.636Z,93.20
2022-09-01T11:50:34.205Z,91.30
2022-09-01T11:55:40.853Z,78.90
2022-09-01T12:00:43.710Z,92.90
2022-09-01T12:05:50.219Z,92.20
2022-09-01T12:11:32.446Z,92.00
2022-09-01T12:16:37.306Z,91.50
2022-09-01T12:21:44.176Z,92.20
2022-09-01T12:26:48.508Z,91.60
2022-09-01T12:31:53.123Z,92.30
2022-09-01T12:37:24.805Z,91.10
2022-09-01T12:42:40.723Z,91.30
2022-09-01T12:47:50.253Z,92.20
2022-09-01T12:52:58.509Z,91.30
2022-09-01T12:58:04.739Z,91.30
2022-09-01T13:03:18.014Z,91.10
2022-09-01T13:08:27.127Z,91.00
2022-09-01T13:13:30.288Z,81.70
2022-09-01T13:18:32.974Z,91.80
2022-09-01T13:23:35.765Z,91.80
2022-09-01T13:28:40.427Z,86.00
2022-09-01T13:39:06.093Z,92.10
2022-09-01T13:44:10.052Z,91.90
2022-09-01T13:54:34.960Z,92.10
2022-09-01T13:59:38.211Z,76.10
2022-09-01T14:04:40.750Z,82.80
2022-09-01T14:09:43.161Z,93.70
2022-09-01T14:20:12.865Z,90.10
2022-09-01T14:25:16.473Z,93.40
2022-09-01T14:30:29.060Z,93.10
2022-09-01T14:35:34.355Z,87.70
2022-09-01T14:40:38.911Z,92.00
2022-09-01T14:45:48.321Z,91.80
2022-09-01T14:50:51.023Z,73.10
2022-09-01T14:55:56.232Z,87.80
2022-09-01T15:01:11.998Z,86.60
2022-09-01T15:06:22.981Z,90.60
2022-09-01T15:11:25.345Z,84.30
2022-09-01T15:16:28.598Z,85.90
2022-09-01T15:21:33.927Z,86.40
2022-09-01T15:26:38.291Z,81.90
2022-09-01T15:31:42.826Z,84.10
2022-09-01T15:36:45.577Z,88.00
2022-09-01T15:41:47.978Z,88.30
2022-09-01T15:46:50.772Z,88.50
2022-09-01T15:51:56.889Z,88.20
2022-09-01T15:56:59.303Z,90.30
2022-09-01T16:02:02.105Z,87.00
2022-09-01T16:07:04.719Z,91.80
2022-09-01T16:12:08.245Z,91.30
2022-09-01T16:17:20.699Z,91.00
2022-09-01T16:22:28.824Z,91.30
2022-09-01T16:27:35.809Z,91.80
2022-09-01T16:32:41.732Z,91.60
2022-09-01T16:38:11.361Z,92.10
2022-09-01T16:43:38.733Z,92.10
2022-09-01T16:48:41.849Z,92.30
2022-09-01T16:54:25.225Z,92.40
2022-09-01T16:59:54.770Z,92.60
2022-09-01T17:05:26.208Z,92.70
2022-09-01T17:10:46.451Z,93.00
2022-09-01T17:16:07.902Z,93.30
2022-09-01T17:21:16.435Z,93.40
2022-09-01T17:26:28.549Z,93.70
2022-09-01T17:31:49.308Z,94.00
2022-09-01T17:37:16.050Z,94.20
2022-09-01T17:42:31.144Z,94.60
2022-09-01T17:47:49.071Z,94.70
2022-09-01T17:53:26.254Z,94.90
2022-09-01T17:58:40.798Z,95.20
2022-09-01T18:04:11.653Z,94.70
2022-09-01T18:09:17.807Z,99.90
2022-09-01T18:14:27.333Z,99.90
2022-09-01T18:19:37.446Z,99.90
2022-09-01T18:25:03.874Z,99.90
2022-09-01T18:30:06.948Z,99.90
2022-09-01T18:41:21.592Z,99.90
2022-09-01T18:46:35.998Z,99.90
2022-09-01T18:52:27.036Z,99.90
2022-09-01T18:57:37.306Z,97.50
2022-09-01T19:03:01.101Z,95.60
2022-09-01T19:08:04.140Z,94.40
2022-09-01T19:13:28.213Z,93.60
2022-09-01T19:18:46.938Z,93.20
2022-09-01T19:24:02.502Z,92.90
2022-09-01T19:29:18.294Z,92.70
2022-09-01T19:34:26.520Z,92.50
2022-09-01T19:39:36.117Z,92.40
2022-09-01T19:44:48.812Z,92.40
2022-09-01T19:50:09.828Z,96.30
2022-09-01T19:55:14.998Z,99.90
2022-09-01T20:00:24.280Z,99.90
2022-09-01T20:05:31.846Z,99.90
2022-09-01T20:11:12.716Z,99.30
2022-09-01T20:16:32.943Z,97.90
2022-09-01T20:21:40.058Z,97.10
2022-09-01T20:27:11.987Z,97.50
2022-09-01T20:32:22.760Z,96.80
2022-09-01T20:37:38.764Z,96.60
2022-09-01T20:43:25.278Z,96.30
2022-09-01T20:48:30.372Z,96.20
2022-09-01T20:53:53.796Z,96.10
2022-09-01T20:59:03.176Z,91.80
2022-09-01T21:04:17.420Z,99.90
2022-09-01T21:09:47.735Z,99.90
2022-09-01T21:15:19.762Z,99.90
2022-09-01T21:20:38.083Z,99.40
2022-09-01T21:25:42.248Z,98.70
2022-09-01T21:30:44.883Z,98.20
2022-09-01T21:35:47.277Z,97.90
2022-09-01T21:40:51.708Z,97.70
2022-09-01T21:45:54.443Z,97.50
2022-09-01T21:50:56.920Z,97.40
2022-09-01T21:55:59.959Z,97.20
2022-09-01T22:01:02.590Z,97.10
2022-09-01T22:06:05.750Z,97.30
2022-09-01T22:11:10.260Z,97.10
2022-09-01T22:16:17.654Z,97.00
2022-09-01T22:21:20.443Z,97.00
2022-09-01T22:26:29.339Z,97.20
2022-09-01T22:31:33.476Z,97.00
2022-09-01T22:36:39.688Z,97.00
2022-09-01T22:41:42.317Z,97.00
2022-09-01T22:46:45.255Z,97.00
2022-09-01T22:51:47.740Z,97.00
2022-09-01T22:56:50.342Z,97.00
2022-09-01T23:01:53.098Z,97.10
2022-09-01T23:06:55.657Z,97.10
2022-09-01T23:11:58.057Z,97.10
2022-09-01T23:17:00.814Z,97.10
2022-09-01T23:22:03.390Z,97.20
2022-09-01T23:27:05.886Z,97.20
2022-09-01T23:32:08.535Z,97.20
2022-09-01T23:37:11.066Z,97.30
2022-09-01T23:42:13.583Z,97.30
2022-09-01T23:47:15.969Z,97.30
2022-09-01T23:52:18.440Z,97.30
2022-09-01T23:57:21.260Z,97.30
